LIRF

Leonardo da Vinci–Fiumicino Airport

Rome, Italy
TAF LIRF 181100Z 1812/1918 24012KT CAVOK BECMG 1817/1819 02012KT BECMG 1908/1910 24012KT
Issued Valid From Valid To
Jun-18 @ 11:00 UTC
(2 hours ago)
Jun-18 @ 12:00 UTC
(an hour ago)
Jun-19 @ 18:00 UTC
(-1 days ago)
Jun-18 @ 12:00 to Jun-18 @ 17:00
TAF LIRF 181100Z 1812/1918 24012KT CAVOK
Wind Visibility Clouds Conditions
240° at 12 knots 10,000+ meters
  • No significant clouds
Becoming Jun-18 @ 17:00 to Jun-19 @ 08:00
BECMG 1817/1819 02012KT
Wind Visibility Clouds Conditions
20° at 12 knots 10,000+ meters
  • No significant clouds
Becoming Jun-19 @ 08:00 to Jun-19 @ 18:00
BECMG 1908/1910 24012KT
Wind Visibility Clouds Conditions
240° at 12 knots 10,000+ meters
  • No significant clouds
TAF LIRF 181100Z 1812/1918 24012KT CAVOK BECMG 1817/1819 02012KT BECMG 1908/1910 24012KT
Issued Jun-18 @ 11:00 UTC
(2 hours ago)
Valid From Jun-18 @ 12:00 UTC
(an hour ago)
Valid To Jun-19 @ 18:00 UTC
(-1 days ago)
Jun-18 @ 12:00 - Jun-18 @ 17:00
Wind Visibility
240° at 12 knots 10,000+ meters
Clouds
  • No significant clouds
Conditions
Becoming Jun-18 @ 17:00 - Jun-19 @ 08:00
Wind Visibility
20° at 12 knots 10,000+ meters
Clouds
  • No significant clouds
Conditions
Becoming Jun-19 @ 08:00 - Jun-19 @ 18:00
Wind Visibility
240° at 12 knots 10,000+ meters
Clouds
  • No significant clouds
Conditions